createdAt,value
2019-03-23T00:00:00.476Z,14.70
2019-03-23T00:02:29.012Z,14.70
2019-03-23T00:04:57.505Z,14.70
2019-03-23T00:07:26.080Z,14.70
2019-03-23T00:09:54.679Z,14.60
2019-03-23T00:12:23.256Z,14.60
2019-03-23T00:14:51.834Z,14.60
2019-03-23T00:17:20.404Z,14.60
2019-03-23T00:19:49.141Z,14.50
2019-03-23T00:22:17.770Z,14.50
2019-03-23T00:24:46.284Z,14.50
2019-03-23T00:27:14.936Z,14.40
2019-03-23T00:29:43.642Z,14.40
2019-03-23T00:32:12.264Z,14.40
2019-03-23T00:34:40.946Z,14.30
2019-03-23T00:37:09.603Z,14.30
2019-03-23T00:39:38.157Z,14.30
2019-03-23T00:42:06.725Z,14.30
2019-03-23T00:44:35.294Z,14.30
2019-03-23T00:47:03.944Z,14.20
2019-03-23T00:49:32.502Z,14.20
2019-03-23T00:52:01.130Z,14.20
2019-03-23T00:54:29.896Z,14.20
2019-03-23T00:56:58.372Z,14.10
2019-03-23T00:59:27.025Z,14.10
2019-03-23T01:01:55.624Z,14.00
2019-03-23T01:04:24.296Z,14.00
2019-03-23T01:06:52.933Z,14.00
2019-03-23T01:09:21.504Z,14.00
2019-03-23T01:11:50.062Z,13.90
2019-03-23T01:14:18.754Z,13.90
2019-03-23T01:16:47.226Z,13.90
2019-03-23T01:19:15.940Z,13.80
2019-03-23T01:21:44.650Z,13.80
2019-03-23T01:24:13.258Z,13.80
2019-03-23T01:26:41.875Z,13.80
2019-03-23T01:29:10.563Z,13.70
2019-03-23T01:31:39.291Z,13.70
2019-03-23T01:34:08.022Z,13.70
2019-03-23T01:36:36.630Z,13.70
2019-03-23T01:39:07.218Z,13.70
2019-03-23T01:41:35.763Z,13.60
2019-03-23T01:44:05.009Z,13.60
2019-03-23T01:46:33.730Z,13.50
2019-03-23T01:49:02.437Z,13.50
2019-03-23T01:51:30.991Z,13.50
2019-03-23T01:53:59.453Z,13.50
2019-03-23T01:56:28.021Z,13.50
2019-03-23T01:58:56.628Z,13.50
2019-03-23T02:01:25.134Z,13.40
2019-03-23T02:03:53.710Z,13.40
2019-03-23T02:06:22.295Z,13.40
2019-03-23T02:08:51.054Z,13.40
2019-03-23T02:11:19.666Z,13.40
2019-03-23T02:13:48.459Z,13.40
2019-03-23T02:16:16.966Z,13.30
2019-03-23T02:18:45.673Z,13.30
2019-03-23T02:21:14.145Z,13.30
2019-03-23T02:23:42.829Z,13.30
2019-03-23T02:26:11.490Z,13.20
2019-03-23T02:28:40.248Z,13.20
2019-03-23T02:31:09.204Z,13.20
2019-03-23T02:33:37.968Z,13.10
2019-03-23T02:36:06.645Z,13.10
2019-03-23T02:38:35.275Z,13.10
2019-03-23T02:41:03.952Z,13.10
2019-03-23T02:43:32.603Z,13.00
2019-03-23T02:46:01.595Z,13.00
2019-03-23T02:48:30.376Z,13.00
2019-03-23T02:50:59.015Z,13.00
2019-03-23T02:53:27.594Z,12.90
2019-03-23T02:55:56.204Z,12.90
2019-03-23T02:58:24.744Z,12.90
2019-03-23T03:00:53.332Z,12.90
2019-03-23T03:03:21.803Z,12.90
2019-03-23T03:05:50.251Z,12.80
2019-03-23T03:08:18.733Z,12.80
2019-03-23T03:10:47.574Z,12.80
2019-03-23T03:13:16.045Z,12.80
2019-03-23T03:15:44.566Z,12.80
2019-03-23T03:18:13.159Z,12.80
2019-03-23T03:20:41.693Z,12.70
2019-03-23T03:23:10.445Z,12.70
2019-03-23T03:25:39.036Z,12.70
2019-03-23T03:28:07.805Z,12.70
2019-03-23T03:30:36.493Z,12.70
2019-03-23T03:33:05.066Z,12.70
2019-03-23T03:35:33.729Z,12.70
2019-03-23T03:38:02.243Z,12.60
2019-03-23T03:40:30.712Z,12.60
2019-03-23T03:42:59.266Z,12.60
2019-03-23T03:45:29.492Z,12.50
2019-03-23T03:47:58.163Z,12.50
2019-03-23T03:50:26.877Z,12.50
2019-03-23T03:52:55.506Z,12.40
2019-03-23T03:55:24.210Z,12.40
2019-03-23T03:57:52.861Z,12.30
2019-03-23T04:00:21.398Z,12.30
2019-03-23T04:02:49.860Z,12.30
2019-03-23T04:05:18.677Z,12.20
2019-03-23T04:07:47.265Z,12.20
2019-03-23T04:10:15.837Z,12.20
2019-03-23T04:12:44.598Z,12.20
2019-03-23T04:15:13.161Z,12.20
2019-03-23T04:17:41.733Z,12.20
2019-03-23T04:20:11.173Z,12.20
2019-03-23T04:22:40.028Z,12.20
2019-03-23T04:25:10.309Z,12.20
2019-03-23T04:27:39.067Z,12.20
2019-03-23T04:30:09.937Z,12.20
2019-03-23T04:32:38.679Z,12.20
2019-03-23T04:35:08.086Z,12.20
2019-03-23T04:37:36.789Z,12.20
2019-03-23T04:40:07.962Z,12.20
2019-03-23T04:42:36.663Z,12.20
2019-03-23T04:45:07.736Z,12.20
2019-03-23T04:47:36.443Z,12.20
2019-03-23T04:50:12.137Z,12.20
2019-03-23T04:52:40.982Z,12.20
2019-03-23T04:55:13.935Z,12.20
2019-03-23T04:57:42.563Z,12.20
2019-03-23T05:00:19.238Z,12.20
2019-03-23T05:02:47.859Z,12.10
2019-03-23T05:05:16.768Z,12.20
2019-03-23T05:07:45.897Z,12.10
2019-03-23T05:10:15.084Z,12.10
2019-03-23T05:12:43.557Z,12.10
2019-03-23T05:15:13.083Z,12.10
2019-03-23T05:17:41.868Z,12.00
2019-03-23T05:20:12.698Z,12.00
2019-03-23T05:22:41.342Z,12.00
2019-03-23T05:25:12.975Z,11.90
2019-03-23T05:27:41.526Z,11.90
2019-03-23T05:30:10.436Z,11.90
2019-03-23T05:32:39.013Z,11.80
2019-03-23T05:35:07.716Z,11.80
2019-03-23T05:37:36.427Z,11.80
2019-03-23T05:40:07.340Z,11.70
2019-03-23T05:42:36.230Z,11.70
2019-03-23T05:45:06.848Z,11.70
2019-03-23T05:47:35.390Z,11.70
2019-03-23T05:50:06.072Z,11.70
2019-03-23T05:52:34.750Z,11.70
2019-03-23T05:55:03.634Z,11.80
2019-03-23T05:57:32.251Z,11.80
2019-03-23T06:00:00.914Z,11.90
2019-03-23T06:02:29.571Z,11.90
2019-03-23T06:04:58.333Z,11.90
2019-03-23T06:07:26.973Z,11.90
2019-03-23T06:09:55.613Z,12.00
2019-03-23T06:12:24.085Z,12.10
2019-03-23T06:14:52.784Z,12.10
2019-03-23T06:17:21.494Z,12.20
2019-03-23T06:19:50.144Z,12.20
2019-03-23T06:22:18.774Z,12.30
2019-03-23T06:24:47.296Z,12.30
2019-03-23T06:27:15.747Z,12.40
2019-03-23T06:29:44.384Z,12.50
2019-03-23T06:32:12.921Z,12.60
2019-03-23T06:34:41.664Z,12.60
2019-03-23T06:37:10.149Z,12.70
2019-03-23T06:39:38.986Z,12.80
2019-03-23T06:42:07.520Z,12.80
2019-03-23T06:44:36.159Z,12.90
2019-03-23T06:47:04.948Z,13.00
2019-03-23T06:49:33.545Z,13.10
2019-03-23T06:52:02.026Z,13.20
2019-03-23T06:54:30.694Z,13.30
2019-03-23T06:56:59.275Z,13.40
2019-03-23T06:59:27.970Z,13.50
2019-03-23T07:01:56.594Z,13.60
2019-03-23T07:04:26.742Z,13.60
2019-03-23T07:06:55.560Z,13.70
2019-03-23T07:09:24.403Z,13.80
2019-03-23T07:11:52.982Z,13.90
2019-03-23T07:14:21.636Z,14.00
2019-03-23T07:16:50.305Z,14.10
2019-03-23T07:19:21.489Z,14.20
2019-03-23T07:21:50.241Z,14.30
2019-03-23T07:24:18.914Z,14.40
2019-03-23T07:26:47.583Z,14.50
2019-03-23T07:29:16.246Z,14.60
2019-03-23T07:31:44.834Z,14.70
2019-03-23T07:34:13.608Z,14.90
2019-03-23T07:36:42.254Z,15.00
2019-03-23T07:39:11.314Z,15.10
2019-03-23T07:41:39.884Z,15.20
2019-03-23T07:44:08.653Z,15.30
2019-03-23T07:46:37.303Z,15.40
2019-03-23T07:49:06.671Z,15.50
2019-03-23T07:51:35.406Z,15.70
2019-03-23T07:54:04.006Z,15.70
2019-03-23T07:56:32.585Z,16.00
2019-03-23T07:59:01.186Z,16.00
2019-03-23T08:01:30.148Z,16.20
2019-03-23T08:03:58.858Z,16.20
2019-03-23T08:06:27.630Z,16.40
2019-03-23T08:08:56.227Z,16.40
2019-03-23T08:11:25.026Z,16.60
2019-03-23T08:13:53.753Z,16.60
2019-03-23T08:16:22.324Z,16.80
2019-03-23T08:18:51.403Z,16.80
2019-03-23T08:21:19.946Z,17.00
2019-03-23T08:23:48.383Z,16.90
2019-03-23T08:26:17.205Z,17.20
2019-03-23T08:28:46.134Z,17.10
2019-03-23T08:31:14.964Z,17.20
2019-03-23T08:33:43.457Z,17.30
2019-03-23T08:36:12.550Z,17.40
2019-03-23T08:38:41.573Z,17.50
2019-03-23T08:41:10.189Z,17.60
2019-03-23T08:43:39.143Z,17.70
2019-03-23T08:46:07.842Z,17.70
2019-03-23T08:48:36.721Z,17.80
2019-03-23T08:51:05.786Z,17.90
2019-03-23T08:53:34.994Z,18.00
2019-03-23T08:56:04.015Z,18.10
2019-03-23T08:58:31.590Z,18.10
2019-03-23T09:01:00.153Z,18.20
2019-03-23T09:03:29.341Z,18.30
2019-03-23T09:05:57.855Z,18.40
2019-03-23T09:08:26.970Z,18.50
2019-03-23T09:10:56.017Z,18.70
2019-03-23T09:13:25.255Z,18.70
2019-03-23T09:15:54.178Z,18.80
2019-03-23T09:18:22.853Z,18.80
2019-03-23T09:20:51.818Z,18.90
2019-03-23T09:23:20.425Z,19.00
2019-03-23T09:25:49.308Z,19.10
2019-03-23T09:28:17.913Z,19.20
2019-03-23T09:30:46.473Z,19.20
2019-03-23T09:33:15.182Z,19.30
2019-03-23T09:35:43.883Z,19.40
2019-03-23T09:38:12.507Z,19.50
2019-03-23T09:40:41.047Z,19.60
2019-03-23T09:43:10.036Z,19.70
2019-03-23T09:45:38.899Z,19.80
2019-03-23T09:48:07.760Z,19.90
2019-03-23T09:50:36.419Z,20.00
2019-03-23T09:53:05.177Z,20.10
2019-03-23T09:55:34.064Z,20.20
2019-03-23T09:58:02.799Z,20.20
2019-03-23T10:00:32.119Z,20.30
2019-03-23T10:03:00.888Z,20.40
2019-03-23T10:05:29.509Z,20.30
2019-03-23T10:07:58.485Z,20.40
2019-03-23T10:10:27.167Z,20.50
2019-03-23T10:12:56.137Z,20.60
2019-03-23T10:15:24.623Z,20.70
2019-03-23T10:17:53.604Z,20.70
2019-03-23T10:20:23.434Z,20.80
2019-03-23T10:22:52.687Z,20.90
2019-03-23T10:25:21.563Z,21.00
2019-03-23T10:27:50.330Z,21.10
2019-03-23T10:30:18.876Z,21.10
2019-03-23T10:32:47.537Z,21.20
2019-03-23T10:35:16.446Z,21.30
2019-03-23T10:37:45.502Z,21.30
2019-03-23T10:40:14.431Z,21.30
2019-03-23T10:42:43.561Z,21.30
2019-03-23T10:45:13.608Z,21.30
2019-03-23T10:47:42.354Z,21.40
2019-03-23T10:50:12.091Z,21.40
2019-03-23T10:52:40.808Z,21.40
2019-03-23T10:55:09.446Z,21.40
2019-03-23T10:57:38.270Z,21.40
2019-03-23T11:00:10.178Z,21.40
2019-03-23T11:02:39.204Z,21.40
2019-03-23T11:05:09.218Z,21.50
2019-03-23T11:07:38.177Z,21.50
2019-03-23T11:10:09.378Z,21.40
2019-03-23T11:12:37.958Z,21.40
2019-03-23T11:15:08.017Z,21.40
2019-03-23T11:17:36.669Z,21.40
2019-03-23T11:20:10.800Z,21.40
2019-03-23T11:22:39.544Z,21.40
2019-03-23T11:25:08.739Z,21.40
2019-03-23T11:27:37.250Z,21.40
2019-03-23T11:30:08.072Z,21.50
2019-03-23T11:32:36.931Z,21.60
2019-03-23T11:35:08.148Z,21.60
2019-03-23T11:37:37.479Z,21.70
2019-03-23T11:40:09.056Z,21.80
2019-03-23T11:42:37.916Z,21.80
2019-03-23T11:45:08.062Z,21.80
2019-03-23T11:47:36.945Z,21.90
2019-03-23T11:50:06.900Z,21.90
2019-03-23T11:52:36.135Z,22.00
2019-03-23T11:55:06.838Z,22.00
2019-03-23T11:57:35.746Z,22.10
2019-03-23T12:00:07.502Z,22.10
2019-03-23T12:02:36.407Z,22.10
2019-03-23T12:05:07.356Z,22.20
2019-03-23T12:07:36.457Z,22.20
2019-03-23T12:10:10.425Z,22.30
2019-03-23T12:12:39.084Z,22.30
2019-03-23T12:15:10.114Z,22.40
2019-03-23T12:17:38.775Z,22.40
2019-03-23T12:20:08.775Z,22.50
2019-03-23T12:22:37.713Z,22.50
2019-03-23T12:25:07.095Z,22.60
2019-03-23T12:27:35.701Z,22.60
2019-03-23T12:30:07.571Z,22.70
2019-03-23T12:32:36.371Z,22.70
2019-03-23T12:35:07.980Z,22.80
2019-03-23T12:37:36.904Z,22.90
2019-03-23T12:40:07.639Z,23.00
2019-03-23T12:42:36.539Z,23.00
2019-03-23T12:45:06.590Z,23.10
2019-03-23T12:47:35.495Z,23.20
2019-03-23T12:50:06.804Z,23.20
2019-03-23T12:52:35.840Z,23.20
2019-03-23T12:55:06.210Z,23.20
2019-03-23T12:57:34.827Z,23.30
2019-03-23T13:00:05.081Z,23.30
2019-03-23T13:02:33.847Z,23.30
2019-03-23T13:05:04.131Z,23.40
2019-03-23T13:07:32.954Z,23.40
2019-03-23T13:10:01.686Z,23.40
2019-03-23T13:12:30.362Z,23.40
2019-03-23T13:14:58.988Z,23.40
2019-03-23T13:17:27.445Z,23.50
2019-03-23T13:19:55.993Z,23.60
2019-03-23T13:22:24.726Z,23.60
2019-03-23T13:24:53.587Z,23.80
2019-03-23T13:27:22.469Z,23.90
2019-03-23T13:29:50.943Z,24.00
2019-03-23T13:32:19.853Z,24.10
2019-03-23T13:34:48.393Z,24.20
2019-03-23T13:37:16.979Z,24.20
2019-03-23T13:39:45.922Z,24.30
2019-03-23T13:42:14.703Z,24.40
2019-03-23T13:44:43.451Z,24.40
2019-03-23T13:47:12.252Z,24.40
2019-03-23T13:49:40.863Z,24.40
2019-03-23T13:52:09.460Z,24.50
2019-03-23T13:54:38.339Z,24.50
2019-03-23T13:57:06.883Z,24.60
2019-03-23T13:59:35.615Z,24.70
2019-03-23T14:02:04.733Z,24.80
2019-03-23T14:04:33.483Z,24.90
2019-03-23T14:07:02.434Z,25.00
2019-03-23T14:09:31.610Z,25.10
2019-03-23T14:12:00.243Z,25.30
2019-03-23T14:14:29.303Z,25.40
2019-03-23T14:16:57.986Z,25.40
2019-03-23T14:19:26.761Z,25.50
2019-03-23T14:21:55.516Z,25.50
2019-03-23T14:24:24.449Z,25.50
2019-03-23T14:26:53.009Z,25.60
2019-03-23T14:29:21.754Z,25.80
2019-03-23T14:31:50.444Z,26.00
2019-03-23T14:34:38.269Z,26.00
2019-03-23T14:37:06.850Z,26.10
2019-03-23T14:39:37.029Z,26.20
2019-03-23T14:42:05.790Z,26.30
2019-03-23T14:44:34.387Z,26.30
2019-03-23T14:47:03.072Z,26.40
2019-03-23T14:49:31.736Z,26.60
2019-03-23T14:52:00.666Z,26.70
2019-03-23T14:54:29.283Z,26.80
2019-03-23T14:57:01.735Z,27.00
2019-03-23T14:59:30.542Z,27.20
2019-03-23T15:01:59.266Z,27.60
2019-03-23T15:04:27.853Z,28.20
2019-03-23T15:06:56.590Z,28.80
2019-03-23T15:09:25.305Z,29.60
2019-03-23T15:11:54.247Z,30.40
2019-03-23T15:14:22.968Z,31.20
2019-03-23T15:16:51.655Z,32.00
2019-03-23T15:19:20.434Z,32.90
2019-03-23T15:21:49.384Z,33.80
2019-03-23T15:24:17.946Z,34.50
2019-03-23T15:26:46.808Z,35.20
2019-03-23T15:29:15.523Z,36.00
2019-03-23T15:31:44.080Z,36.60
2019-03-23T15:34:13.060Z,37.10
2019-03-23T15:36:42.094Z,37.50
2019-03-23T15:39:10.996Z,37.70
2019-03-23T15:41:40.254Z,38.00
2019-03-23T15:44:08.868Z,38.20
2019-03-23T15:46:37.936Z,38.10
2019-03-23T15:49:06.684Z,38.10
2019-03-23T15:51:35.390Z,38.10
2019-03-23T15:54:04.268Z,38.00
2019-03-23T15:56:33.150Z,38.10
2019-03-23T15:59:22.349Z,38.10
2019-03-23T16:01:50.843Z,38.10
2019-03-23T16:04:19.677Z,38.20
2019-03-23T16:06:48.299Z,38.20
2019-03-23T16:09:16.805Z,37.90
2019-03-23T16:11:45.662Z,37.50
2019-03-23T16:14:14.383Z,37.00
2019-03-23T16:16:43.016Z,36.50
2019-03-23T16:19:11.665Z,36.10
2019-03-23T16:21:40.518Z,35.90
2019-03-23T16:24:09.027Z,35.70
2019-03-23T16:26:38.075Z,35.50
2019-03-23T16:29:07.127Z,35.30
2019-03-23T16:31:36.097Z,35.20
2019-03-23T16:34:05.163Z,35.10
2019-03-23T16:36:33.899Z,35.00
2019-03-23T16:39:02.891Z,35.00
2019-03-23T16:41:32.255Z,34.70
2019-03-23T16:44:00.828Z,34.70
2019-03-23T16:46:29.653Z,34.20
2019-03-23T16:49:00.286Z,34.20
2019-03-23T16:51:29.078Z,33.80
2019-03-23T16:53:57.970Z,33.70
2019-03-23T16:56:26.838Z,33.10
2019-03-23T16:58:55.797Z,33.10
2019-03-23T17:01:36.487Z,32.40
2019-03-23T17:04:05.213Z,32.30
2019-03-23T17:06:45.844Z,31.60
2019-03-23T17:09:06.329Z,31.60
2019-03-23T17:11:35.153Z,30.80
2019-03-23T17:14:03.940Z,30.70
2019-03-23T17:16:32.774Z,29.80
2019-03-23T17:19:01.631Z,29.70
2019-03-23T17:21:30.210Z,28.80
2019-03-23T17:23:59.197Z,28.70
2019-03-23T17:26:27.981Z,27.90
2019-03-23T17:28:56.924Z,27.80
2019-03-23T17:31:25.646Z,26.90
2019-03-23T17:33:54.243Z,26.90
2019-03-23T17:36:22.805Z,26.20
2019-03-23T17:38:51.477Z,26.10
2019-03-23T17:41:20.097Z,25.50
2019-03-23T17:43:49.025Z,25.40
2019-03-23T17:46:17.735Z,24.90
2019-03-23T17:48:46.781Z,24.90
2019-03-23T17:51:15.616Z,24.60
2019-03-23T17:53:44.499Z,24.40
2019-03-23T17:56:13.365Z,24.10
2019-03-23T17:58:42.031Z,23.90
2019-03-23T18:01:19.263Z,23.70
2019-03-23T18:03:44.457Z,23.60
2019-03-23T18:06:13.070Z,23.40
2019-03-23T18:08:41.876Z,23.20
2019-03-23T18:11:10.535Z,23.00
2019-03-23T18:13:39.320Z,22.80
2019-03-23T18:16:08.224Z,22.70
2019-03-23T18:18:37.118Z,22.50
2019-03-23T18:21:05.844Z,22.40
2019-03-23T18:23:34.899Z,22.20
2019-03-23T18:26:03.796Z,22.10
2019-03-23T18:28:32.647Z,21.90
2019-03-23T18:31:01.339Z,21.80
2019-03-23T18:33:30.031Z,21.70
2019-03-23T18:35:58.751Z,21.60
2019-03-23T18:38:27.364Z,21.40
2019-03-23T18:40:55.971Z,21.30
2019-03-23T18:43:27.688Z,21.10
2019-03-23T18:45:55.450Z,21.10
2019-03-23T18:48:24.324Z,20.90
2019-03-23T18:50:53.164Z,20.80
2019-03-23T18:53:23.942Z,20.60
2019-03-23T18:55:52.368Z,20.50
2019-03-23T18:58:20.867Z,20.40
2019-03-23T19:00:49.716Z,20.30
2019-03-23T19:03:18.399Z,20.20
2019-03-23T19:05:47.063Z,20.20
2019-03-23T19:08:15.684Z,20.10
2019-03-23T19:10:44.291Z,19.90
2019-03-23T19:13:12.859Z,19.80
2019-03-23T19:15:41.634Z,19.70
2019-03-23T19:18:10.439Z,19.60
2019-03-23T19:20:39.066Z,19.50
2019-03-23T19:23:07.938Z,19.40
2019-03-23T19:25:36.572Z,19.30
2019-03-23T19:28:06.075Z,19.30
2019-03-23T19:30:35.053Z,19.10
2019-03-23T19:33:06.157Z,19.00
2019-03-23T19:35:34.591Z,18.90
2019-03-23T19:38:03.376Z,18.90
2019-03-23T19:40:31.925Z,18.80
2019-03-23T19:43:00.671Z,18.70
2019-03-23T19:45:29.342Z,18.60
2019-03-23T19:47:58.048Z,18.50
2019-03-23T19:50:26.827Z,18.40
2019-03-23T19:52:55.591Z,18.30
2019-03-23T19:55:24.184Z,18.20
2019-03-23T19:57:54.766Z,18.20
2019-03-23T20:00:23.357Z,18.10
2019-03-23T20:02:52.136Z,18.10
2019-03-23T20:05:21.024Z,18.00
2019-03-23T20:07:49.695Z,17.90
2019-03-23T20:10:18.758Z,17.80
2019-03-23T20:12:47.435Z,17.80
2019-03-23T20:15:16.554Z,17.70
2019-03-23T20:17:45.558Z,17.70
2019-03-23T20:20:15.924Z,17.60
2019-03-23T20:22:44.612Z,17.60
2019-03-23T20:25:13.748Z,17.50
2019-03-23T20:27:42.444Z,17.40
2019-03-23T20:30:13.331Z,17.30
2019-03-23T20:32:42.093Z,17.20
2019-03-23T20:35:11.071Z,17.10
2019-03-23T20:37:40.127Z,17.00
2019-03-23T20:40:10.683Z,16.90
2019-03-23T20:42:39.458Z,16.80
2019-03-23T20:45:09.718Z,16.80
2019-03-23T20:47:40.621Z,16.60
2019-03-23T20:50:10.355Z,16.60
2019-03-23T20:52:40.139Z,16.50
2019-03-23T20:55:14.717Z,16.40
2019-03-23T20:57:43.387Z,16.30
2019-03-23T21:00:12.294Z,16.30
2019-03-23T21:02:41.040Z,16.20
2019-03-23T21:05:09.817Z,16.10
2019-03-23T21:07:38.596Z,16.00
2019-03-23T21:10:07.735Z,16.00
2019-03-23T21:12:36.356Z,15.90
2019-03-23T21:15:06.821Z,15.90
2019-03-23T21:17:35.759Z,15.80
2019-03-23T21:20:06.259Z,15.80
2019-03-23T21:22:34.980Z,15.70
2019-03-23T21:25:04.768Z,15.70
2019-03-23T21:27:33.404Z,15.60
2019-03-23T21:30:01.937Z,15.60
2019-03-23T21:32:30.496Z,15.50
2019-03-23T21:34:59.101Z,15.40
2019-03-23T21:37:27.556Z,15.30
2019-03-23T21:39:56.356Z,15.30
2019-03-23T21:42:25.160Z,15.20
2019-03-23T21:44:53.822Z,15.20
2019-03-23T21:47:22.574Z,15.10
2019-03-23T21:49:51.133Z,15.00
2019-03-23T21:52:19.656Z,14.90
2019-03-23T21:54:48.176Z,14.90
2019-03-23T21:57:16.816Z,14.80
2019-03-23T21:59:45.309Z,14.80
2019-03-23T22:02:13.922Z,14.70
2019-03-23T22:04:42.611Z,14.70
2019-03-23T22:07:11.283Z,14.40
2019-03-23T22:09:40.159Z,14.40
2019-03-23T22:12:08.679Z,14.40
2019-03-23T22:14:41.590Z,14.30
2019-03-23T22:17:07.816Z,14.30
2019-03-23T22:19:36.376Z,14.20
2019-03-23T22:22:04.929Z,14.20
2019-03-23T22:24:33.557Z,14.30
2019-03-23T22:27:02.139Z,14.20
2019-03-23T22:29:30.817Z,14.30
2019-03-23T22:31:59.281Z,14.30
2019-03-23T22:34:27.885Z,14.30
2019-03-23T22:36:56.343Z,14.20
2019-03-23T22:39:24.938Z,14.20
2019-03-23T22:41:53.768Z,14.30
2019-03-23T22:44:22.312Z,14.20
2019-03-23T22:46:50.901Z,14.30
2019-03-23T22:49:19.480Z,14.30
2019-03-23T22:51:48.024Z,14.30
2019-03-23T22:54:16.732Z,14.30
2019-03-23T22:56:45.401Z,14.30
2019-03-23T22:59:15.445Z,14.30
2019-03-23T23:01:44.279Z,14.30
2019-03-23T23:04:13.119Z,14.30
2019-03-23T23:06:41.828Z,14.30
2019-03-23T23:09:10.763Z,14.30
2019-03-23T23:11:39.321Z,14.30
2019-03-23T23:14:07.969Z,14.30
2019-03-23T23:16:36.531Z,14.40
2019-03-23T23:19:05.451Z,14.40
2019-03-23T23:21:34.215Z,14.30
2019-03-23T23:24:02.698Z,14.30
2019-03-23T23:26:31.344Z,14.30
2019-03-23T23:29:00.179Z,14.30
2019-03-23T23:31:28.745Z,14.30
2019-03-23T23:33:57.282Z,14.20
2019-03-23T23:36:25.820Z,14.30
2019-03-23T23:38:54.369Z,14.30
2019-03-23T23:41:23.328Z,14.20
2019-03-23T23:43:51.959Z,14.20
2019-03-23T23:46:20.679Z,14.20
2019-03-23T23:48:51.424Z,14.20
2019-03-23T23:51:19.502Z,14.10
2019-03-23T23:53:48.119Z,14.20
2019-03-23T23:56:19.796Z,14.10
2019-03-23T23:58:48.740Z,14.20
